Time;durP1;ratioP1;P1;durP2;ratioP2;P2;SDS_P1;SDS_P2;PMS_P1;PMS_P2;Temp;Humidity;BMP_temperature;BMP_pressure;BME280_temperature;BME280_humidity;BME280_pressure;Samples;Min_cycle;Max_cycle;Signal;HPM_P1;HPM_P2
2021/03/05 00:01:26;;;;;;;4.97;1.57;;;;;;;1.57;100.00;101537.94;5037103;28;20253;-70
2021/03/05 00:03:54;;;;;;;3.80;1.20;;;;;;;1.44;100.00;101531.66;5036708;28;20217;-70
2021/03/05 00:06:22;;;;;;;2.83;1.07;;;;;;;1.39;100.00;101538.59;5070252;28;20218;-69
2021/03/05 00:08:50;;;;;;;2.10;0.70;;;;;;;1.38;100.00;101545.81;5038071;28;20183;-69
2021/03/05 00:11:16;;;;;;;3.53;1.00;;;;;;;1.37;100.00;101546.81;5037068;28;20701;-70
2021/03/05 00:13:42;;;;;;;3.67;1.07;;;;;;;1.41;100.00;101553.47;5069844;28;20266;-70
2021/03/05 00:16:08;;;;;;;3.43;0.90;;;;;;;1.40;100.00;101557.16;5068763;28;20341;-70
2021/03/05 00:18:36;;;;;;;3.00;0.87;;;;;;;1.26;100.00;101558.06;5070911;28;20185;-70
2021/03/05 00:21:01;;;;;;;2.83;1.00;;;;;;;1.24;100.00;101565.41;5038136;28;20223;-69
2021/03/05 00:23:30;;;;;;;3.13;1.00;;;;;;;1.19;100.00;101561.66;5070894;28;20187;-69
2021/03/05 00:25:55;;;;;;;3.70;1.13;;;;;;;1.23;100.00;101566.44;5039067;28;20321;-70
2021/03/05 00:28:23;;;;;;;4.67;1.03;;;;;;;1.13;100.00;101560.56;5037794;28;20187;-70
2021/03/05 00:30:49;;;;;;;4.57;1.30;;;;;;;1.11;100.00;101566.31;5036149;28;20264;-71
2021/03/05 00:33:15;;;;;;;3.90;1.20;;;;;;;1.02;100.00;101568.25;5052613;28;20303;-70
2021/03/05 00:35:40;;;;;;;4.00;1.03;;;;;;;1.04;100.00;101563.56;5069554;28;20223;-70
2021/03/05 00:38:06;;;;;;;6.07;1.50;;;;;;;0.95;100.00;101574.56;5070118;28;20212;-70
2021/03/05 00:40:34;;;;;;;3.03;0.90;;;;;;;0.90;100.00;101574.31;5069369;28;20578;-70
2021/03/05 00:43:00;;;;;;;2.67;1.20;;;;;;;0.84;100.00;101575.88;5036156;28;20187;-70
2021/03/05 00:45:27;;;;;;;3.97;1.20;;;;;;;0.66;100.00;101577.31;5052509;28;20229;-70
2021/03/05 00:47:53;;;;;;;2.17;1.10;;;;;;;0.75;100.00;101576.16;5053540;28;20240;-70
2021/03/05 00:50:20;;;;;;;2.23;1.20;;;;;;;0.73;100.00;101586.22;5036279;28;20179;-70
2021/03/05 00:52:48;;;;;;;3.10;1.07;;;;;;;0.75;100.00;101586.03;5036016;28;20534;-69
2021/03/05 00:55:14;;;;;;;6.73;1.40;;;;;;;0.61;100.00;101593.06;5069354;28;20203;-69
2021/03/05 00:57:44;;;;;;;2.27;0.90;;;;;;;0.67;100.00;101600.31;5036854;28;20171;-70
2021/03/05 01:00:12;;;;;;;4.93;1.20;;;;;;;0.64;100.00;101605.19;5086688;28;20264;-69
2021/03/05 01:02:38;;;;;;;6.50;1.23;;;;;;;0.65;100.00;101612.22;5035277;28;20223;-70
2021/03/05 01:05:05;;;;;;;3.17;1.00;;;;;;;0.59;100.00;101610.28;5035986;28;20581;-69
2021/03/05 01:07:31;;;;;;;2.27;1.10;;;;;;;0.57;100.00;101622.97;5069352;28;20228;-69
2021/03/05 01:09:56;;;;;;;4.03;0.93;;;;;;;0.47;100.00;101623.25;5036491;28;20183;-69
2021/03/05 01:12:22;;;;;;;1.47;0.93;;;;;;;0.53;100.00;101625.22;5067887;28;20218;-69
2021/03/05 01:14:48;;;;;;;4.87;1.00;;;;;;;0.47;100.00;101625.94;5069468;28;21018;-69
2021/03/05 01:17:13;;;;;;;4.63;1.17;;;;;;;0.40;100.00;101638.38;5051989;28;20229;-70
2021/03/05 01:19:39;;;;;;;2.83;1.10;;;;;;;0.41;100.00;101632.03;5052477;28;20218;-71
2021/03/05 01:22:05;;;;;;;3.27;1.10;;;;;;;0.36;100.00;101640.78;5084714;28;20218;-69
2021/03/05 01:24:30;;;;;;;2.90;1.20;;;;;;;0.44;100.00;101631.66;5035978;28;20632;-69
2021/03/05 01:26:59;;;;;;;3.27;1.20;;;;;;;0.39;100.00;101628.69;5051468;28;20778;-70
2021/03/05 01:29:27;;;;;;;5.57;1.20;;;;;;;0.36;100.00;101638.94;5052679;28;20260;-70
2021/03/05 01:31:52;;;;;;;5.40;1.03;;;;;;;0.30;100.00;101638.84;5069032;28;20226;-69
2021/03/05 01:34:19;;;;;;;3.80;1.20;;;;;;;0.17;100.00;101643.97;5069817;28;20248;-70
2021/03/05 01:36:45;;;;;;;3.77;0.97;;;;;;;0.17;100.00;101643.97;5071258;28;20246;-70
2021/03/05 01:39:13;;;;;;;5.87;1.40;;;;;;;0.30;100.00;101638.84;5052217;28;20207;-71
2021/03/05 01:41:38;;;;;;;5.00;1.10;;;;;;;0.23;100.00;101649.41;5048921;28;20745;-72
2021/03/05 01:44:10;;;;;;;3.73;1.00;;;;;;;0.10;100.00;101638.50;5020909;28;20208;-69
2021/03/05 01:46:36;;;;;;;2.90;1.10;;;;;;;-0.05;100.00;101636.00;5014217;28;20273;-69
2021/03/05 01:49:08;;;;;;;2.47;0.90;;;;;;;0.06;100.00;101647.09;5048994;28;20171;-69
2021/03/05 01:51:35;;;;;;;3.67;1.43;;;;;;;0.12;100.00;101646.34;5048187;28;20219;-70
2021/03/05 01:54:01;;;;;;;3.23;1.40;;;;;;;0.03;100.00;101650.09;5024900;28;20261;-69
2021/03/05 01:56:39;;;;;;;2.90;1.10;;;;;;;0.02;100.00;101640.44;5048236;28;20208;-69
2021/03/05 01:59:12;;;;;;;5.57;1.20;;;;;;;-0.07;100.00;101649.53;5030169;28;20290;-69
2021/03/05 02:01:40;;;;;;;1.80;1.30;;;;;;;-0.09;100.00;101659.56;5047599;28;20230;-71
2021/03/05 02:04:10;;;;;;;4.97;1.43;;;;;;;-0.17;100.00;101662.28;5048235;28;20202;-70
2021/03/05 02:06:36;;;;;;;1.73;0.97;;;;;;;-0.16;100.00;101658.63;5031484;28;20220;-69
2021/03/05 02:09:01;;;;;;;3.13;0.93;;;;;;;-0.10;100.00;101660.56;5048869;28;20194;-69
2021/03/05 02:11:27;;;;;;;2.10;0.90;;;;;;;-0.17;100.00;101667.63;5048352;28;20218;-70
2021/03/05 02:13:53;;;;;;;4.13;1.20;;;;;;;-0.19;100.00;101674.97;5031710;28;20564;-69
2021/03/05 02:16:34;;;;;;;2.20;1.10;;;;;;;-0.22;100.00;101670.00;5031967;28;20318;-69
2021/03/05 02:19:22;;;;;;;5.27;1.10;;;;;;;-0.17;100.00;101677.47;5033479;28;20179;-68
2021/03/05 02:22:15;;;;;;;1.10;1.00;;;;;;;-0.33;100.00;101672.25;5027630;28;20227;-69
2021/03/05 02:25:23;;;;;;;4.37;1.30;;;;;;;-0.25;100.00;101681.03;5035308;28;20592;-70
2021/03/05 02:28:13;;;;;;;2.60;1.00;;;;;;;-0.35;100.00;101682.25;5032643;28;20331;-69
2021/03/05 02:31:17;;;;;;;3.77;1.07;;;;;;;-0.30;100.00;101679.91;5037475;28;20235;-69
2021/03/05 02:34:09;;;;;;;4.07;1.30;;;;;;;-0.33;100.00;101683.78;5051247;28;20191;-69
2021/03/05 02:36:54;;;;;;;5.63;1.17;;;;;;;-0.34;100.00;101687.44;5033558;28;20228;-69
2021/03/05 02:39:21;;;;;;;3.17;1.40;;;;;;;-0.47;100.00;101696.22;5037280;28;20217;-71
2021/03/05 02:41:59;;;;;;;4.23;1.30;;;;;;;-0.49;100.00;101696.38;5034279;28;20229;-69
2021/03/05 02:44:33;;;;;;;2.83;1.27;;;;;;;-0.39;100.00;101699.63;5019370;28;20215;-70
2021/03/05 02:47:03;;;;;;;3.60;1.67;;;;;;;-0.37;100.00;101706.47;5036304;28;20639;-69
2021/03/05 02:49:31;;;;;;;5.37;1.70;;;;;;;-0.64;100.00;101706.13;5036118;28;20882;-69
2021/03/05 02:51:57;;;;;;;3.60;1.50;;;;;;;-0.65;100.00;101711.63;5018024;28;20223;-69
2021/03/05 02:54:22;;;;;;;5.07;1.80;;;;;;;-0.74;100.00;101713.50;5035547;28;20765;-70
2021/03/05 02:56:52;;;;;;;4.97;1.47;;;;;;;-0.64;100.00;101715.94;5018923;28;20250;-70
2021/03/05 02:59:18;;;;;;;6.67;1.97;;;;;;;-0.86;100.00;101714.09;5035677;28;20624;-69
2021/03/05 03:01:45;;;;;;;5.13;1.80;;;;;;;-0.78;100.00;101715.88;5017278;28;20219;-69
2021/03/05 03:04:10;;;;;;;5.37;2.23;;;;;;;-0.75;100.00;101722.53;5019010;28;20215;-70
2021/03/05 03:06:38;;;;;;;5.33;1.80;;;;;;;-0.67;100.00;101727.00;5034803;28;20313;-70
2021/03/05 03:09:04;;;;;;;4.97;2.30;;;;;;;-0.81;100.00;101725.03;5035178;28;20187;-70
2021/03/05 03:11:31;;;;;;;5.70;1.93;;;;;;;-0.88;100.00;101729.44;5051092;28;20306;-70
2021/03/05 03:13:57;;;;;;;5.70;2.10;;;;;;;-0.87;100.00;101725.75;5017951;28;20187;-69
2021/03/05 03:16:22;;;;;;;5.50;2.57;;;;;;;-0.94;100.00;101738.09;5051047;28;20253;-69
2021/03/05 03:18:48;;;;;;;5.67;2.30;;;;;;;-0.89;100.00;101741.06;5018487;28;20176;-71
2021/03/05 03:21:13;;;;;;;4.60;2.00;;;;;;;-0.86;100.00;101738.09;5017717;28;20274;-69
2021/03/05 03:23:41;;;;;;;6.60;2.40;;;;;;;-0.97;100.00;101742.94;5018098;28;20717;-69
2021/03/05 03:26:07;;;;;;;4.73;2.20;;;;;;;-0.99;100.00;101736.94;5018057;28;20215;-69
2021/03/05 03:28:34;;;;;;;6.40;2.00;;;;;;;-1.01;100.00;101742.47;5034994;28;20180;-69
2021/03/05 03:31:00;;;;;;;7.33;2.10;;;;;;;-1.03;100.00;101743.63;5034365;28;20226;-68
2021/03/05 03:33:26;;;;;;;3.90;2.20;;;;;;;-0.99;100.00;101748.47;5017487;28;20194;-69
2021/03/05 03:35:51;;;;;;;2.90;2.07;;;;;;;-0.99;100.00;101747.59;5050641;28;20227;-72
2021/03/05 03:38:16;;;;;;;6.03;2.50;;;;;;;-1.16;100.00;101755.84;5051341;28;20517;-69
2021/03/05 03:40:42;;;;;;;5.37;2.37;;;;;;;-1.15;100.00;101748.50;5030656;28;20232;-69
2021/03/05 03:43:08;;;;;;;4.70;2.10;;;;;;;-1.04;100.00;101750.81;5032879;28;20256;-69
2021/03/05 03:45:35;;;;;;;3.87;2.07;;;;;;;-1.09;100.00;101753.13;5030896;28;20234;-70
2021/03/05 03:48:03;;;;;;;3.60;2.30;;;;;;;-1.09;100.00;101755.81;5031628;28;20184;-71
2021/03/05 03:50:40;;;;;;;4.37;2.27;;;;;;;-0.94;100.00;101755.94;5012947;28;20266;-69
2021/03/05 03:53:10;;;;;;;6.83;2.10;;;;;;;-0.98;100.00;101763.44;5030534;28;20302;-69
2021/03/05 03:55:36;;;;;;;4.93;1.83;;;;;;;-1.01;100.00;101761.13;5013409;28;20246;-71
2021/03/05 03:58:07;;;;;;;4.97;2.83;;;;;;;-1.01;100.00;101766.47;5044586;28;20218;-70
2021/03/05 04:00:32;;;;;;;4.60;2.37;;;;;;;-0.96;100.00;101750.75;5051168;28;20207;-71
2021/03/05 04:02:58;;;;;;;4.30;2.13;;;;;;;-1.00;100.00;101757.44;5053150;28;20344;-69
2021/03/05 04:05:27;;;;;;;5.70;2.23;;;;;;;-1.07;100.00;101759.13;5036698;28;20226;-69
2021/03/05 04:07:54;;;;;;;3.03;2.10;;;;;;;-1.13;100.00;101766.97;5053733;28;20191;-69
2021/03/05 04:10:19;;;;;;;4.17;2.07;;;;;;;-1.18;100.00;101757.84;5070196;28;20586;-69
2021/03/05 04:12:45;;;;;;;6.90;2.50;;;;;;;-1.16;100.00;101766.50;5053304;28;20187;-70
2021/03/05 04:15:15;;;;;;;4.13;2.10;;;;;;;-1.07;100.00;101783.09;5053377;28;20210;-71
2021/03/05 04:17:40;;;;;;;3.40;1.70;;;;;;;-1.11;100.00;101778.31;5037645;28;20186;-70
2021/03/05 04:20:08;;;;;;;4.93;2.10;;;;;;;-1.16;100.00;101784.13;5037248;28;20590;-69
2021/03/05 04:22:34;;;;;;;8.33;2.40;;;;;;;-1.06;100.00;101784.78;5069382;28;20334;-70
2021/03/05 04:25:00;;;;;;;2.67;1.87;;;;;;;-1.21;100.00;101779.47;5037185;28;20205;-72
2021/03/05 04:27:28;;;;;;;6.23;2.30;;;;;;;-1.13;100.00;101782.97;5053228;28;20323;-70
2021/03/05 04:29:55;;;;;;;3.70;2.00;;;;;;;-1.28;100.00;101778.50;5070336;28;20174;-70
2021/03/05 04:32:26;;;;;;;3.93;1.93;;;;;;;-1.24;100.00;101779.84;5068824;28;20253;-70
2021/03/05 04:34:53;;;;;;;5.27;2.50;;;;;;;-1.36;100.00;101790.00;5053940;28;20214;-69
2021/03/05 04:37:21;;;;;;;6.80;2.00;;;;;;;-1.37;100.00;101792.84;5053142;28;20653;-69
2021/03/05 04:39:47;;;;;;;3.70;1.90;;;;;;;-1.35;100.00;101796.16;5070061;28;20214;-71
2021/03/05 04:42:13;;;;;;;3.90;2.07;;;;;;;-1.43;100.00;101799.69;5035618;28;20225;-69
2021/03/05 04:44:38;;;;;;;5.43;2.13;;;;;;;-1.28;100.00;101805.13;5103637;28;20279;-70
2021/03/05 04:47:06;;;;;;;8.10;2.37;;;;;;;-1.25;100.00;101815.47;5069421;28;20647;-69
2021/03/05 04:49:31;;;;;;;5.17;2.10;;;;;;;-1.13;100.00;101815.78;5071381;28;20190;-69
2021/03/05 04:51:59;;;;;;;4.80;2.00;;;;;;;-1.18;100.00;101822.59;5068268;28;20238;-70
2021/03/05 04:54:27;;;;;;;3.77;2.13;;;;;;;-1.32;100.00;101822.44;5053400;28;20197;-69
2021/03/05 04:56:53;;;;;;;4.83;2.03;;;;;;;-1.37;100.00;101828.28;5085915;28;21023;-68
2021/03/05 04:59:18;;;;;;;4.37;2.00;;;;;;;-1.28;100.00;101831.75;5053210;28;20269;-68
2021/03/05 05:01:44;;;;;;;6.43;2.03;;;;;;;-1.32;100.00;101835.78;5068167;28;20232;-72
2021/03/05 05:04:10;;;;;;;5.30;2.13;;;;;;;-1.37;100.00;101838.94;5086468;28;20234;-71
2021/03/05 05:06:37;;;;;;;8.17;2.73;;;;;;;-1.39;100.00;101834.78;5069104;28;20288;-69
2021/03/05 05:09:03;;;;;;;5.87;2.40;;;;;;;-1.36;100.00;101843.25;5069852;28;20190;-69
2021/03/05 05:11:31;;;;;;;6.40;2.10;;;;;;;-1.32;100.00;101846.44;5052103;28;20265;-70
2021/03/05 05:13:56;;;;;;;4.30;2.10;;;;;;;-1.41;100.00;101842.94;5085663;28;20773;-69
2021/03/05 05:16:22;;;;;;;5.53;2.43;;;;;;;-1.44;100.00;101845.13;5035589;28;20222;-70
2021/03/05 05:18:50;;;;;;;4.60;2.13;;;;;;;-1.40;100.00;101849.09;5053240;28;20199;-69
2021/03/05 05:21:20;;;;;;;6.20;2.47;;;;;;;-1.46;100.00;101847.13;5085376;28;20226;-70
2021/03/05 05:23:46;;;;;;;5.50;2.37;;;;;;;-1.56;100.00;101843.75;5052160;28;20664;-69
2021/03/05 05:26:15;;;;;;;5.30;2.47;;;;;;;-1.74;100.00;101855.56;5052227;28;20230;-70
2021/03/05 05:28:40;;;;;;;6.10;2.03;;;;;;;-1.56;100.00;101854.41;5052296;28;20191;-70
2021/03/05 05:31:08;;;;;;;3.27;2.17;;;;;;;-1.59;100.00;101865.41;5068587;28;20275;-70
2021/03/05 05:33:33;;;;;;;4.83;2.20;;;;;;;-1.48;100.00;101863.25;5051676;28;20182;-69
2021/03/05 05:35:59;;;;;;;2.77;1.80;;;;;;;-1.46;100.00;101863.09;5068543;28;20237;-69
2021/03/05 05:38:24;;;;;;;7.47;2.13;;;;;;;-1.49;100.00;101872.22;5060883;28;20241;-70
2021/03/05 05:40:51;;;;;;;5.57;2.00;;;;;;;-1.52;100.00;101864.59;5050485;28;20756;-70
2021/03/05 05:43:18;;;;;;;3.53;2.00;;;;;;;-1.54;100.00;101868.38;5015792;28;20194;-70
2021/03/05 05:45:47;;;;;;;7.23;2.33;;;;;;;-1.56;100.00;101873.06;5071963;28;20598;-70
2021/03/05 05:48:13;;;;;;;5.23;2.50;;;;;;;-1.46;100.00;101873.75;5049797;28;20207;-70
2021/03/05 05:50:41;;;;;;;6.37;2.23;;;;;;;-1.46;100.00;101887.88;5031735;28;20250;-71
2021/03/05 05:53:07;;;;;;;4.50;2.07;;;;;;;-1.42;100.00;101894.53;5016116;28;20198;-70
2021/03/05 05:55:32;;;;;;;6.63;2.10;;;;;;;-1.53;100.00;101888.72;5015836;28;20231;-70
2021/03/05 05:57:58;;;;;;;3.00;2.10;;;;;;;-1.68;100.00;101895.69;5050192;28;20183;-69
2021/03/05 06:00:27;;;;;;;7.83;2.10;;;;;;;-1.69;100.00;101902.00;5016680;28;20203;-69
2021/03/05 06:02:53;;;;;;;3.13;1.77;;;;;;;-1.63;100.00;101900.50;5049625;28;20212;-69
2021/03/05 06:05:21;;;;;;;6.47;2.20;;;;;;;-1.79;100.00;101901.31;5047225;28;20302;-69
2021/03/05 06:07:49;;;;;;;4.87;2.30;;;;;;;-1.81;100.00;101903.31;5074076;28;20187;-70
2021/03/05 06:10:15;;;;;;;5.10;1.60;;;;;;;-1.72;100.00;101905.00;5033177;28;20682;-68
2021/03/05 06:12:40;;;;;;;5.70;2.47;;;;;;;-1.66;100.00;101901.66;5065194;28;20192;-69
2021/03/05 06:15:07;;;;;;;3.90;2.27;;;;;;;-1.61;100.00;101915.34;5030268;28;20578;-69
2021/03/05 06:17:47;;;;;;;10.67;2.80;;;;;;;-1.62;100.00;101913.66;5039736;28;20265;-70
2021/03/05 06:20:17;;;;;;;5.33;2.00;;;;;;;-1.61;100.00;101920.66;5043855;28;20200;-68
2021/03/05 06:22:46;;;;;;;3.23;1.90;;;;;;;-1.69;100.00;101911.81;5014836;28;20180;-70
2021/03/05 06:25:12;;;;;;;7.03;2.17;;;;;;;-1.60;100.00;101930.31;5027571;28;20254;-67
2021/03/05 06:27:41;;;;;;;3.37;2.03;;;;;;;-1.55;100.00;101928.00;5050112;28;20234;-68
2021/03/05 06:30:11;;;;;;;2.93;1.97;;;;;;;-1.48;100.00;101931.66;5032255;28;20274;-68
2021/03/05 06:32:41;;;;;;;4.53;2.00;;;;;;;-1.52;100.00;101936.50;5027980;28;20180;-68
2021/03/05 06:35:07;;;;;;;3.50;2.30;;;;;;;-1.43;100.00;101948.81;5030638;28;20214;-69
2021/03/05 06:37:44;;;;;;;5.13;2.30;;;;;;;-1.33;100.00;101946.81;5047614;28;20194;-69
2021/03/05 06:40:12;;;;;;;5.60;2.57;;;;;;;-1.34;100.00;101957.66;5046273;28;20297;-69
2021/03/05 06:43:09;;;;;;;3.40;1.93;;;;;;;-1.20;100.00;101962.34;5046827;28;20194;-70
2021/03/05 06:45:35;;;;;;;4.80;1.80;;;;;;;-1.17;100.00;101962.00;5015551;28;20258;-69
2021/03/05 06:48:06;;;;;;;5.03;2.37;;;;;;;-1.05;100.00;101967.66;5060119;28;20182;-69
2021/03/05 06:50:38;;;;;;;4.67;2.00;;;;;;;-1.05;100.00;101958.84;5035247;28;20218;-70
2021/03/05 06:53:23;;;;;;;3.83;1.73;;;;;;;-1.04;100.00;101964.00;5052551;28;20194;-68
2021/03/05 06:55:49;;;;;;;5.03;2.00;;;;;;;-1.00;100.00;101970.66;5085536;28;20644;-68
2021/03/05 06:58:14;;;;;;;6.30;2.97;;;;;;;-0.96;100.00;101972.00;5070603;28;20171;-70
2021/03/05 07:00:41;;;;;;;2.77;2.00;;;;;;;-0.94;100.00;101974.50;5069336;28;20244;-67
2021/03/05 07:03:36;;;;;;;4.53;2.23;;;;;;;-0.88;100.00;101988.00;5019445;28;20943;-68
2021/03/05 07:06:01;;;;;;;7.10;2.37;;;;;;;-0.89;100.00;101983.66;5043625;28;20230;-69
2021/03/05 07:08:42;;;;;;;4.90;1.90;;;;;;;-0.86;100.00;101980.69;5036345;28;20194;-68
2021/03/05 07:11:15;;;;;;;4.03;1.50;;;;;;;-0.81;100.00;101986.31;5036677;28;20225;-67
2021/03/05 07:13:50;;;;;;;7.37;2.20;;;;;;;-0.73;100.00;101994.34;5052015;28;20217;-68
2021/03/05 07:16:18;;;;;;;3.60;1.80;;;;;;;-0.80;100.00;101990.66;5034086;28;20308;-70
2021/03/05 07:18:46;;;;;;;3.77;1.70;;;;;;;-0.67;100.00;101993.66;5031888;28;20649;-68
2021/03/05 07:21:21;;;;;;;4.80;2.00;;;;;;;-0.43;100.00;101997.13;5031754;28;20230;-70
2021/03/05 07:23:47;;;;;;;3.77;1.90;;;;;;;-0.39;100.00;102003.78;5048566;28;20551;-68
2021/03/05 07:26:13;;;;;;;3.83;2.10;;;;;;;-0.44;100.00;102003.47;5034049;28;20219;-69
2021/03/05 07:28:42;;;;;;;5.83;2.00;;;;;;;-0.41;100.00;101999.63;5035218;28;20194;-68
2021/03/05 07:31:07;;;;;;;3.13;1.63;;;;;;;-0.32;100.00;102002.94;5034601;28;20317;-68
2021/03/05 07:33:33;;;;;;;3.67;2.00;;;;;;;-0.23;100.00;102009.94;5051720;28;20563;-69
2021/03/05 07:36:01;;;;;;;6.50;2.07;;;;;;;-0.06;100.00;102011.56;5034082;28;20234;-69
2021/03/05 07:38:26;;;;;;;6.53;2.13;;;;;;;-0.27;100.00;102021.94;5018769;28;20192;-68
2021/03/05 07:40:52;;;;;;;7.40;2.17;;;;;;;-0.14;100.00;102014.25;5034158;28;20277;-68
2021/03/05 07:43:20;;;;;;;5.03;1.73;;;;;;;-0.03;100.00;102015.75;5034044;28;20184;-68
2021/03/05 07:45:45;;;;;;;8.03;1.83;;;;;;;0.06;100.00;102020.88;5050558;28;20231;-68
2021/03/05 07:48:11;;;;;;;6.10;2.30;;;;;;;-0.02;100.00;102012.88;5034273;28;20244;-68
2021/03/05 07:50:38;;;;;;;3.80;1.80;;;;;;;0.11;100.00;102023.84;5061477;28;20222;-68
2021/03/05 07:53:06;;;;;;;4.53;1.80;;;;;;;0.21;100.00;102019.16;5036996;28;20222;-68
2021/03/05 07:55:35;;;;;;;5.00;1.83;;;;;;;0.18;100.00;102024.81;5067341;28;20726;-68
2021/03/05 07:58:00;;;;;;;4.63;2.33;;;;;;;0.38;100.00;102023.41;5071078;28;20203;-69
2021/03/05 08:00:50;;;;;;;6.33;2.23;;;;;;;0.56;100.00;102020.31;5071700;28;20229;-68
2021/03/05 08:03:17;;;;;;;2.33;1.80;;;;;;;0.66;100.00;102028.13;5088087;28;20244;-67
2021/03/05 08:05:47;;;;;;;5.57;2.10;;;;;;;0.50;100.00;102031.72;5071607;28;20230;-68
2021/03/05 08:08:33;;;;;;;3.93;1.63;;;;;;;0.61;100.00;102028.66;5038089;28;20191;-69
2021/03/05 08:11:00;;;;;;;5.40;2.13;;;;;;;0.68;100.00;102040.31;5069267;28;20313;-68
2021/03/05 08:16:31;;;;;;;7.23;2.50;;;;;;;0.92;100.00;102026.81;5070233;28;20316;-69
2021/03/05 08:19:08;;;;;;;4.00;1.83;;;;;;;1.12;100.00;102034.19;5071966;28;20260;-68
2021/03/05 08:21:51;;;;;;;7.60;2.37;;;;;;;1.15;100.00;102034.66;5071015;28;20984;-68
2021/03/05 08:24:26;;;;;;;4.77;1.97;;;;;;;1.17;100.00;102038.00;5070475;28;20253;-68
2021/03/05 08:27:20;;;;;;;4.47;1.80;;;;;;;1.13;100.00;102044.69;5069586;28;20218;-68
2021/03/05 08:29:53;;;;;;;4.33;1.70;;;;;;;1.34;100.00;102052.91;5070129;28;20248;-68
2021/03/05 08:32:31;;;;;;;3.00;1.47;;;;;;;1.38;100.00;102051.53;5050066;28;20518;-69
2021/03/05 08:34:59;;;;;;;4.83;1.97;;;;;;;1.33;100.00;102043.22;5053891;28;20218;-68
2021/03/05 08:37:28;;;;;;;2.60;1.33;;;;;;;1.44;100.00;102056.16;5068812;28;20227;-70
2021/03/05 08:40:13;;;;;;;3.03;1.40;;;;;;;1.58;100.00;102064.25;5053461;28;20211;-68
2021/03/05 08:42:41;;;;;;;3.87;1.70;;;;;;;1.61;100.00;102061.22;5070190;28;20272;-69
2021/03/05 08:45:26;;;;;;;3.30;1.40;;;;;;;1.57;99.56;102072.44;5069675;28;20206;-68
2021/03/05 08:47:57;;;;;;;8.30;2.00;;;;;;;1.82;98.55;102076.59;5053771;28;20218;-68
2021/03/05 08:50:24;;;;;;;2.80;1.50;;;;;;;1.84;98.48;102077.25;5052471;28;20716;-69
2021/03/05 08:52:50;;;;;;;4.20;2.07;;;;;;;1.93;96.86;102075.13;5052412;28;20179;-68
2021/03/05 08:55:16;;;;;;;6.30;2.80;;;;;;;2.02;97.62;102079.41;5069394;28;20191;-69
2021/03/05 08:57:57;;;;;;;4.20;1.27;;;;;;;2.02;93.58;102083.94;5071195;28;20194;-69
2021/03/05 09:00:28;;;;;;;5.10;1.87;;;;;;;2.15;94.05;102089.50;5069691;28;20290;-69
2021/03/05 09:03:03;;;;;;;3.10;1.30;;;;;;;2.22;92.80;102091.25;5052059;28;20258;-69
2021/03/05 09:05:31;;;;;;;3.70;1.60;;;;;;;2.24;89.67;102094.59;5086381;28;20595;-68
2021/03/05 09:07:58;;;;;;;1.97;1.40;;;;;;;2.35;89.94;102094.13;5053606;28;20837;-68
2021/03/05 09:10:56;;;;;;;3.47;1.70;;;;;;;2.56;88.85;102088.84;5052699;28;20174;-69
2021/03/05 09:13:32;;;;;;;3.43;1.20;;;;;;;2.71;86.49;102093.16;5052372;28;20229;-70
2021/03/05 09:15:59;;;;;;;3.23;1.40;;;;;;;2.83;85.71;102087.16;5069059;28;20268;-69
2021/03/05 09:18:30;;;;;;;2.23;1.10;;;;;;;2.79;84.72;102085.03;5053405;28;20667;-69
2021/03/05 09:21:02;;;;;;;4.77;1.23;;;;;;;2.90;85.32;102098.81;5073786;28;20245;-69
2021/03/05 09:23:37;;;;;;;2.47;1.20;;;;;;;2.92;84.19;102102.13;5076280;28;20183;-69
2021/03/05 09:26:03;;;;;;;3.17;1.23;;;;;;;2.76;78.65;102106.88;5058649;28;20656;-71
2021/03/05 09:28:46;;;;;;;2.40;1.10;;;;;;;2.89;81.24;102105.16;5061141;28;20250;-69
2021/03/05 09:31:16;;;;;;;4.43;1.40;;;;;;;3.09;77.55;102103.56;5086451;28;20223;-69
2021/03/05 09:33:43;;;;;;;2.17;1.27;;;;;;;3.34;78.91;102104.91;5086087;28;20198;-70
2021/03/05 09:36:12;;;;;;;2.63;1.03;;;;;;;3.43;77.40;102095.69;5035251;28;20222;-70
2021/03/05 09:38:39;;;;;;;3.17;1.10;;;;;;;3.56;76.91;102100.16;5052383;28;20653;-70
2021/03/05 09:41:33;;;;;;;3.37;1.10;;;;;;;3.51;73.98;102116.00;5068835;28;20313;-69
2021/03/05 09:44:02;;;;;;;3.47;1.00;;;;;;;3.55;75.13;102106.56;5068298;28;20232;-69
2021/03/05 09:46:31;;;;;;;3.80;1.27;;;;;;;3.49;70.33;102115.38;5068786;28;20238;-68
2021/03/05 09:48:57;;;;;;;3.63;1.23;;;;;;;3.68;73.61;102111.22;5052577;28;20175;-68
2021/03/05 09:51:23;;;;;;;2.00;1.07;;;;;;;3.84;67.80;102114.47;5069859;28;20253;-69
2021/03/05 09:53:58;;;;;;;3.90;1.10;;;;;;;3.96;70.20;102126.38;5051639;28;20199;-70
2021/03/05 09:56:25;;;;;;;3.13;1.00;;;;;;;3.95;66.36;102124.72;5069953;28;20595;-68
2021/03/05 09:59:03;;;;;;;3.13;1.60;;;;;;;4.10;68.08;102118.22;5069494;28;20206;-68
2021/03/05 10:01:30;;;;;;;2.67;1.30;;;;;;;4.04;67.68;102134.31;5020606;28;20278;-68
2021/03/05 10:04:02;;;;;;;2.73;1.30;;;;;;;4.36;66.51;102132.69;4996947;28;20672;-68
2021/03/05 10:06:29;;;;;;;3.37;1.23;;;;;;;4.48;62.17;102127.59;5054729;28;20779;-69
2021/03/05 10:09:11;;;;;;;2.83;1.10;;;;;;;4.55;59.39;102134.69;5036445;28;20243;-68
2021/03/05 10:11:38;;;;;;;5.57;2.70;;;;;;;4.38;62.28;102132.50;5085250;28;20798;-70
2021/03/05 10:14:05;;;;;;;2.50;1.33;;;;;;;4.33;61.47;102134.94;5051777;28;20674;-67
2021/03/05 10:16:33;;;;;;;2.30;0.97;;;;;;;4.56;59.20;102140.88;5051601;28;20305;-68
2021/03/05 10:19:01;;;;;;;4.27;1.17;;;;;;;4.65;62.40;102145.91;5085938;28;20183;-68
2021/03/05 10:21:26;;;;;;;2.37;1.40;;;;;;;4.33;60.77;102146.53;5069559;28;20769;-69
2021/03/05 10:23:52;;;;;;;1.40;1.00;;;;;;;4.38;64.37;102149.47;5069509;28;20187;-68
2021/03/05 10:26:27;;;;;;;3.23;1.20;;;;;;;4.64;63.68;102155.03;5051660;28;20218;-68
2021/03/05 10:28:54;;;;;;;2.43;1.20;;;;;;;4.68;58.88;102157.13;5068741;28;20232;-68
2021/03/05 10:31:19;;;;;;;2.27;1.10;;;;;;;4.54;56.92;102165.28;5051455;28;20234;-68
2021/03/05 10:33:45;;;;;;;3.20;2.20;;;;;;;4.60;55.41;102167.22;5050678;28;20171;-70
2021/03/05 10:36:12;;;;;;;8.00;1.90;;;;;;;4.65;58.87;102164.75;5051297;28;20259;-68
2021/03/05 10:38:38;;;;;;;5.13;1.00;;;;;;;4.87;57.06;102150.19;5068685;28;20190;-68
2021/03/05 10:41:04;;;;;;;1.33;1.13;;;;;;;4.84;55.86;102161.38;5067661;28;20234;-69
2021/03/05 10:43:30;;;;;;;3.37;1.57;;;;;;;4.92;56.04;102153.13;5060510;28;20268;-68
2021/03/05 10:45:55;;;;;;;2.70;1.20;;;;;;;4.86;56.57;102162.81;5050802;28;20228;-68
2021/03/05 10:48:21;;;;;;;0.93;0.80;;;;;;;4.94;50.97;102167.22;5051832;28;20175;-68
2021/03/05 10:50:46;;;;;;;1.40;0.90;;;;;;;4.74;50.23;102172.50;5050638;28;20703;-68
2021/03/05 10:53:12;;;;;;;2.67;0.90;;;;;;;4.78;51.76;102173.75;5034588;28;20183;-70
2021/03/05 10:55:38;;;;;;;1.17;0.90;;;;;;;5.27;51.65;102177.94;5068852;28;20258;-68
2021/03/05 10:58:03;;;;;;;4.27;1.20;;;;;;;4.95;52.76;102179.66;5051894;28;20191;-68
2021/03/05 11:00:31;;;;;;;1.13;0.73;;;;;;;4.93;49.22;102177.16;5050974;28;20207;-68
2021/03/05 11:03:01;;;;;;;6.47;1.23;;;;;;;5.02;50.73;102182.19;5034957;28;20274;-68
2021/03/05 11:05:27;;;;;;;1.77;1.13;;;;;;;5.58;48.63;102173.69;5068016;28;20219;-69
2021/03/05 11:07:55;;;;;;;1.97;1.10;;;;;;;5.30;48.12;102188.31;5051956;28;20195;-70
2021/03/05 11:10:25;;;;;;;1.23;0.70;;;;;;;5.16;48.39;102191.97;5050950;28;20179;-70
2021/03/05 11:12:53;;;;;;;1.60;0.80;;;;;;;5.18;48.26;102194.47;5018859;28;20672;-69
2021/03/05 11:15:19;;;;;;;3.37;0.97;;;;;;;5.15;47.55;102187.63;5037568;28;20777;-68
2021/03/05 11:17:46;;;;;;;3.93;1.10;;;;;;;5.24;48.11;102190.97;5039570;28;20270;-68
2021/03/05 11:20:12;;;;;;;4.80;1.20;;;;;;;5.47;50.81;102186.94;5087974;28;20252;-68
2021/03/05 11:22:38;;;;;;;1.70;0.70;;;;;;;5.59;48.27;102190.72;5070568;28;20654;-69
2021/03/05 11:25:09;;;;;;;3.90;0.83;;;;;;;5.73;47.87;102184.34;5054810;28;20207;-68
2021/03/05 11:27:35;;;;;;;5.47;1.20;;;;;;;5.90;48.83;102195.38;5105306;28;20256;-68
2021/03/05 11:30:05;;;;;;;1.03;0.80;;;;;;;5.57;46.80;102187.41;5088285;28;20851;-69
2021/03/05 11:32:35;;;;;;;3.83;0.93;;;;;;;5.49;47.62;102193.75;5087707;28;20684;-69
2021/03/05 11:35:02;;;;;;;2.47;0.80;;;;;;;5.10;47.05;102190.06;5055146;28;20211;-69
2021/03/05 11:37:28;;;;;;;3.17;0.90;;;;;;;5.49;49.07;102191.06;5067085;28;20215;-69